Главная страница
METAR-TAF:

METAR-TAF

Аэропорты :

Международный аэропорт имени Амани Диори

Ниамей, Нигер

широта: 13-29N, долгота: 002-10E, высота над уровнем моря: 223 м

Текущие метеонаблюдения

Эта сводка был подготовлена 53 минут назад, в 05:00 UTC
Ветер 2 Узел от западный-юго-западный
Температура 27°C
Влажность 74%
Давление 1011 hPa
Видимость 10 км и более
Нет облачности ниже 1500 м, и нет кучево-дождевой облачности

METAR: DRRN 250500Z 24002KT CAVOK 27/22 Q1011 NOSIG

Время: 06:53 (05:53 UTC)

Прогноз

Эта сводка был подготовлена 53 минут назад, в 05:00 UTC
Прогноз действительный с 25-го 06 UTC до 26-го 12 UTC
Ветер 10 Узел от юго-западный
Видимость 10 км и более
Нет облачности ниже 1500 м, и нет кучево-дождевой облачности
Вероятность 40% :
временами
С 25-го 14 UTC до 25-го 20 UTC
Отдельные облака на высоте 2000 фута
небольшая облачность на высоте 3300 фута, Кучево-дождевые.
гроза

TAF: DRRN 250500Z 2506/2612 22010KT CAVOK PROB40 TEMPO 2514/2520 TS SCT020 FEW033CB

Метеонаблюдения и прогнозы для более 4000 аэропортов (сводки METAR и TAF).

Имеющиеся станции представлены на карте желтыми и красными точками.

Чтобы увидеть название станции, наведите на нее мышь.

Затем щелкните, чтобы увидеть метеонаблюдения и метеопрогнозы.

Управление картой: чтобы увеличить масштаб, щелкните зеленые кнопки с черным крестиком; чтобы уменьшить масштаб, щелкните зеленую кнопку с тире; для просмотра соседних карт щелкайте зеленые стрелки.


METAR-TAF: